Time;durP1;ratioP1;P1;durP2;ratioP2;P2;SDS_P1;SDS_P2;PMS_P1;PMS_P2;Temp;Humidity;BMP_temperature;BMP_pressure;BME280_temperature;BME280_humidity;BME280_pressure;Samples;Min_cycle;Max_cycle;Signal;HPM_P1;HPM_P2
2022/06/19 00:02:18;;;;;;;5.32;4.47;;;;;;;16.78;70.97;95359.69;5094881;28;20287;-75
2022/06/19 00:04:45;;;;;;;7.75;4.75;;;;;;;16.78;71.37;95370.03;5094466;28;20239;-74
2022/06/19 00:07:12;;;;;;;5.00;4.60;;;;;;;16.80;71.28;95360.09;5094440;28;20207;-75
2022/06/19 00:09:39;;;;;;;4.93;4.43;;;;;;;16.76;70.84;95367.63;5095268;28;20261;-75
2022/06/19 00:12:08;;;;;;;4.80;4.50;;;;;;;16.68;69.89;95368.72;5094662;28;20558;-75
2022/06/19 00:14:35;;;;;;;5.68;4.47;;;;;;;16.60;70.20;95365.06;5094769;28;20204;-75
2022/06/19 00:17:02;;;;;;;8.15;4.15;;;;;;;16.54;70.68;95363.03;5094316;28;20200;-74
2022/06/19 00:19:29;;;;;;;5.05;4.60;;;;;;;16.49;70.61;95363.41;5094566;28;20540;-75
2022/06/19 00:21:56;;;;;;;4.88;4.13;;;;;;;16.42;70.89;95357.75;5094410;28;20202;-74
2022/06/19 00:24:22;;;;;;;4.85;4.30;;;;;;;16.39;71.03;95362.09;5095493;28;20195;-75
2022/06/19 00:26:49;;;;;;;5.90;4.65;;;;;;;16.40;70.85;95368.47;5094151;28;20239;-74
2022/06/19 00:29:18;;;;;;;4.53;4.10;;;;;;;16.37;71.05;95376.38;5094105;28;20207;-74
2022/06/19 00:31:44;;;;;;;5.00;4.30;;;;;;;16.40;71.34;95376.81;5094205;28;20311;-75
2022/06/19 00:34:11;;;;;;;4.65;4.18;;;;;;;16.39;71.29;95364.88;5094678;28;20204;-74
2022/06/19 00:36:38;;;;;;;7.95;4.15;;;;;;;16.41;71.26;95362.50;5094380;28;20200;-74
2022/06/19 00:39:05;;;;;;;4.90;4.32;;;;;;;16.37;70.98;95368.03;5093944;28;20206;-75
2022/06/19 00:41:34;;;;;;;5.50;4.40;;;;;;;16.39;71.01;95378.00;5094043;28;20549;-75
2022/06/19 00:44:03;;;;;;;4.38;4.10;;;;;;;16.40;71.67;95371.25;5094827;28;20192;-75
2022/06/19 00:46:44;;;;;;;4.68;4.32;;;;;;;16.41;71.41;95364.50;5094351;28;20192;-74
2022/06/19 00:49:13;;;;;;;4.95;4.10;;;;;;;16.40;71.52;95369.25;5094230;28;20200;-74
2022/06/19 00:51:40;;;;;;;5.07;4.18;;;;;;;16.40;71.38;95365.69;5094242;28;20215;-75
2022/06/19 00:54:08;;;;;;;4.55;4.07;;;;;;;16.37;71.63;95364.44;5094101;28;20211;-74
2022/06/19 00:56:35;;;;;;;4.70;4.30;;;;;;;16.33;71.58;95371.97;5093970;28;20204;-74
2022/06/19 00:59:03;;;;;;;5.28;4.57;;;;;;;16.31;71.49;95372.38;5093949;28;20196;-75
2022/06/19 01:01:30;;;;;;;4.53;4.13;;;;;;;16.31;71.61;95363.22;5093799;28;20203;-75
2022/06/19 01:04:02;;;;;;;4.82;4.35;;;;;;;16.31;71.75;95368.78;5094152;28;20196;-74
2022/06/19 01:06:29;;;;;;;4.32;4.03;;;;;;;16.29;71.89;95360.81;5094205;28;20188;-74
2022/06/19 01:08:57;;;;;;;6.07;4.47;;;;;;;16.27;71.45;95354.03;5095081;28;20196;-74
2022/06/19 01:11:26;;;;;;;4.80;4.40;;;;;;;16.21;71.44;95356.34;5097843;28;20208;-74
2022/06/19 01:13:53;;;;;;;5.72;4.47;;;;;;;16.14;71.02;95359.06;5097850;28;20192;-74
2022/06/19 01:16:20;;;;;;;4.72;4.18;;;;;;;16.07;71.22;95370.91;5098020;28;20193;-74
2022/06/19 01:18:47;;;;;;;4.38;3.95;;;;;;;16.03;71.24;95363.72;5097534;28;20203;-75
2022/06/19 01:21:18;;;;;;;4.30;4.00;;;;;;;16.01;71.74;95366.06;5097812;28;20222;-75
2022/06/19 01:23:52;;;;;;;4.57;4.28;;;;;;;16.02;71.52;95365.72;5098407;28;20193;-75
2022/06/19 01:26:23;;;;;;;4.80;3.83;;;;;;;16.03;71.49;95363.72;5097515;28;20219;-74
2022/06/19 01:28:55;;;;;;;4.88;4.15;;;;;;;16.01;71.56;95354.94;5097502;28;20197;-74
2022/06/19 01:31:26;;;;;;;4.75;4.13;;;;;;;15.98;71.51;95362.09;5097435;28;20212;-75
2022/06/19 01:33:57;;;;;;;4.53;4.13;;;;;;;15.96;71.81;95360.84;5097332;28;20597;-75
2022/06/19 01:36:25;;;;;;;4.38;4.00;;;;;;;15.95;71.74;95356.47;5097887;28;20207;-75
2022/06/19 01:38:53;;;;;;;4.15;3.85;;;;;;;15.92;71.93;95349.69;5097360;28;20195;-75
2022/06/19 01:41:24;;;;;;;4.13;3.83;;;;;;;15.91;71.79;95352.88;5097404;28;20197;-74
2022/06/19 01:43:51;;;;;;;5.28;4.00;;;;;;;15.87;71.57;95358.38;5097824;28;20193;-74
2022/06/19 01:46:19;;;;;;;5.25;3.83;;;;;;;15.80;71.82;95361.88;5097092;28;20207;-75
2022/06/19 01:48:46;;;;;;;4.30;4.00;;;;;;;15.81;71.46;95355.13;5096977;28;20207;-75
2022/06/19 01:51:13;;;;;;;5.05;4.40;;;;;;;15.78;71.64;95366.22;5096830;28;20223;-74
2022/06/19 01:53:44;;;;;;;5.22;4.22;;;;;;;15.77;71.94;95367.41;5097207;28;20197;-75
2022/06/19 01:56:12;;;;;;;4.28;3.88;;;;;;;15.78;71.91;95366.22;5096815;28;20196;-75
2022/06/19 01:58:43;;;;;;;4.95;4.28;;;;;;;15.76;72.44;95361.03;5097392;28;20197;-75
2022/06/19 02:01:11;;;;;;;4.60;4.15;;;;;;;15.81;72.77;95365.47;5096991;28;20192;-75
2022/06/19 02:03:40;;;;;;;4.68;4.25;;;;;;;15.85;72.82;95364.31;5097263;28;20196;-75
2022/06/19 02:06:08;;;;;;;4.38;4.07;;;;;;;15.85;72.50;95363.53;5096980;28;20279;-75
2022/06/19 02:08:36;;;;;;;4.28;3.97;;;;;;;15.84;72.31;95367.50;5096868;28;20196;-75
2022/06/19 02:11:04;;;;;;;4.57;4.13;;;;;;;15.80;71.69;95367.44;5096801;28;20216;-75
2022/06/19 02:13:32;;;;;;;4.78;4.38;;;;;;;15.72;71.62;95373.28;5098253;28;20177;-75
2022/06/19 02:16:00;;;;;;;4.90;4.40;;;;;;;15.64;71.90;95366.81;5097363;28;20583;-75
2022/06/19 02:18:32;;;;;;;3.88;3.53;;;;;;;15.64;71.99;95372.38;5096769;28;20200;-75
2022/06/19 02:20:58;;;;;;;4.20;3.88;;;;;;;15.63;71.93;95376.34;5096383;28;20203;-75
2022/06/19 02:23:30;;;;;;;4.70;4.28;;;;;;;15.61;72.11;95375.91;5096691;28;20200;-74
2022/06/19 02:25:58;;;;;;;4.50;4.10;;;;;;;15.62;72.03;95378.31;5096566;28;20204;-74
2022/06/19 02:28:25;;;;;;;5.38;3.97;;;;;;;15.62;72.17;95371.97;5096197;28;20212;-75
2022/06/19 02:30:52;;;;;;;4.68;4.28;;;;;;;15.61;71.98;95373.13;5096465;28;20208;-74
2022/06/19 02:33:23;;;;;;;4.65;4.25;;;;;;;15.61;72.71;95378.69;5096310;28;20239;-74
2022/06/19 02:35:50;;;;;;;5.15;4.70;;;;;;;15.64;72.44;95377.94;5097052;28;20204;-74
2022/06/19 02:38:19;;;;;;;4.97;4.30;;;;;;;15.62;72.50;95381.09;5096509;28;20203;-74
2022/06/19 02:40:54;;;;;;;4.32;3.92;;;;;;;15.60;72.36;95386.22;5096485;28;20192;-74
2022/06/19 02:43:24;;;;;;;4.65;4.22;;;;;;;15.59;72.50;95386.63;5096304;28;20195;-74
2022/06/19 02:45:51;;;;;;;4.70;4.30;;;;;;;15.54;72.24;95382.19;5079470;28;20200;-74
2022/06/19 02:48:22;;;;;;;4.60;4.20;;;;;;;15.54;72.40;95386.94;5096499;28;20196;-74
2022/06/19 02:50:50;;;;;;;6.05;4.30;;;;;;;15.54;72.61;95386.94;5079010;28;20204;-73
2022/06/19 02:53:17;;;;;;;4.40;4.00;;;;;;;15.51;72.63;95385.72;5095907;28;20208;-73
2022/06/19 02:55:44;;;;;;;4.70;4.03;;;;;;;15.49;72.51;95390.84;5095974;28;20207;-74
2022/06/19 02:58:11;;;;;;;4.90;4.03;;;;;;;15.51;72.41;95396.03;5096114;28;20196;-74
2022/06/19 03:00:39;;;;;;;5.53;4.20;;;;;;;15.47;72.14;95396.00;5095883;28;20220;-74
2022/06/19 03:03:11;;;;;;;5.05;4.63;;;;;;;15.42;72.16;95393.53;5095909;28;20220;-74
2022/06/19 03:05:41;;;;;;;5.38;4.20;;;;;;;15.41;72.38;95392.72;5095487;28;20196;-73
2022/06/19 03:08:08;;;;;;;4.65;4.20;;;;;;;15.41;72.51;95389.16;5095465;28;20643;-74
2022/06/19 03:10:34;;;;;;;6.72;4.20;;;;;;;15.39;72.26;95399.84;5095798;28;20215;-73
2022/06/19 03:13:01;;;;;;;5.07;4.28;;;;;;;15.33;72.25;95402.16;5095631;28;20216;-74
2022/06/19 03:15:29;;;;;;;4.68;4.28;;;;;;;15.31;72.28;95401.72;5095219;28;20550;-74
2022/06/19 03:17:56;;;;;;;4.85;4.45;;;;;;;15.33;72.26;95398.56;5095769;28;20203;-74
2022/06/19 03:20:25;;;;;;;5.35;4.47;;;;;;;15.36;72.80;95406.16;5095286;28;20196;-74
2022/06/19 03:22:54;;;;;;;5.45;4.70;;;;;;;15.37;72.53;95405.78;5095643;28;20196;-74
2022/06/19 03:25:21;;;;;;;4.65;4.35;;;;;;;15.34;72.42;95400.97;5095020;28;20188;-74
2022/06/19 03:27:48;;;;;;;5.25;4.47;;;;;;;15.32;72.81;95403.34;5095921;28;20239;-74
2022/06/19 03:30:16;;;;;;;6.72;4.25;;;;;;;15.32;72.77;95402.50;5095432;28;20207;-75
2022/06/19 03:32:43;;;;;;;6.38;4.53;;;;;;;15.30;72.70;95404.88;5094724;28;20211;-75
2022/06/19 03:35:11;;;;;;;7.05;4.40;;;;;;;15.29;72.96;95397.72;5095223;28;20189;-75
2022/06/19 03:37:39;;;;;;;6.45;4.63;;;;;;;15.32;73.18;95396.94;5095159;28;20207;-74
2022/06/19 03:40:10;;;;;;;5.53;4.85;;;;;;;15.34;73.35;95389.84;5095354;28;20189;-74
2022/06/19 03:42:37;;;;;;;5.32;4.93;;;;;;;15.38;73.30;95393.47;5095011;28;20295;-74
2022/06/19 03:45:05;;;;;;;6.53;5.28;;;;;;;15.45;73.62;95394.75;5095139;28;20196;-74
2022/06/19 03:47:34;;;;;;;5.25;4.85;;;;;;;15.47;73.44;95392.38;5095604;28;20188;-74
2022/06/19 03:50:01;;;;;;;5.43;4.95;;;;;;;15.49;73.71;95390.03;5095998;28;20195;-75
2022/06/19 03:52:28;;;;;;;5.32;4.82;;;;;;;15.49;73.87;95393.63;5094853;28;20215;-74
2022/06/19 03:54:55;;;;;;;6.35;5.00;;;;;;;15.46;73.77;95390.78;5095072;28;20299;-74
2022/06/19 03:57:23;;;;;;;5.72;5.22;;;;;;;15.50;74.16;95394.41;5094610;28;20208;-74
2022/06/19 03:59:50;;;;;;;5.63;5.22;;;;;;;15.54;74.03;95396.09;5095460;28;20200;-74
2022/06/19 04:02:18;;;;;;;6.65;5.28;;;;;;;15.58;74.58;95396.13;5094484;28;20529;-75
2022/06/19 04:04:45;;;;;;;6.15;5.57;;;;;;;15.61;73.72;95392.56;5094911;28;20208;-74
2022/06/19 04:07:14;;;;;;;5.53;5.03;;;;;;;15.61;74.35;95395.34;5094763;28;20220;-75
2022/06/19 04:09:41;;;;;;;5.90;5.40;;;;;;;15.63;74.31;95406.91;5094548;28;20211;-74
2022/06/19 04:12:09;;;;;;;5.80;5.30;;;;;;;15.69;74.04;95411.00;5095557;28;20205;-74
2022/06/19 04:14:37;;;;;;;5.90;5.40;;;;;;;15.75;73.28;95415.03;5094391;28;20278;-74
2022/06/19 04:17:06;;;;;;;6.15;5.63;;;;;;;15.79;73.34;95409.53;5094600;28;20203;-74
2022/06/19 04:19:33;;;;;;;6.30;5.70;;;;;;;15.82;73.07;95400.44;5094929;28;20196;-74
2022/06/19 04:21:59;;;;;;;6.38;5.88;;;;;;;15.86;73.06;95399.28;5094857;28;20197;-74
2022/06/19 04:24:26;;;;;;;6.80;6.30;;;;;;;15.89;73.57;95406.88;5094534;28;20192;-75
2022/06/19 04:26:53;;;;;;;7.13;6.53;;;;;;;15.94;73.48;95404.94;5093895;28;20239;-73
2022/06/19 04:29:21;;;;;;;7.25;6.55;;;;;;;15.99;73.15;95407.41;5094305;28;20208;-74
2022/06/19 04:31:50;;;;;;;7.38;6.10;;;;;;;15.97;74.23;95404.97;5094279;28;20231;-73
2022/06/19 04:34:17;;;;;;;6.30;5.80;;;;;;;15.96;74.50;95402.59;5094591;28;20189;-73
2022/06/19 04:36:43;;;;;;;7.05;6.45;;;;;;;15.97;74.36;95399.41;5094068;28;20204;-73
2022/06/19 04:39:11;;;;;;;6.80;6.28;;;;;;;16.02;74.02;95406.63;5094483;28;20199;-72
2022/06/19 04:41:40;;;;;;;6.40;5.90;;;;;;;16.05;73.33;95409.47;5094271;28;20204;-73
2022/06/19 04:44:10;;;;;;;6.55;5.95;;;;;;;16.17;72.36;95411.19;5097625;28;20214;-74
2022/06/19 04:46:37;;;;;;;6.30;5.80;;;;;;;16.18;71.93;95407.22;5098212;28;20203;-74
2022/06/19 04:49:06;;;;;;;6.18;5.55;;;;;;;16.19;71.76;95408.00;5098042;28;20200;-73
2022/06/19 04:51:32;;;;;;;6.20;5.57;;;;;;;16.19;71.54;95402.44;5098125;28;20196;-73
2022/06/19 04:53:59;;;;;;;6.15;5.57;;;;;;;16.18;71.73;95404.44;5098808;28;20220;-73
2022/06/19 04:56:26;;;;;;;6.03;5.53;;;;;;;16.14;72.41;95400.81;5098262;28;20619;-73
2022/06/19 04:58:52;;;;;;;6.53;6.03;;;;;;;16.17;72.10;95415.94;5098533;28;20203;-73
2022/06/19 05:01:24;;;;;;;6.57;5.85;;;;;;;16.20;71.79;95417.97;5098141;28;20215;-73
2022/06/19 05:03:52;;;;;;;7.10;6.25;;;;;;;16.19;71.59;95419.13;5099136;28;20192;-72
2022/06/19 05:06:20;;;;;;;6.70;6.20;;;;;;;16.21;71.39;95416.78;5097901;28;20267;-73
2022/06/19 05:08:47;;;;;;;6.38;5.97;;;;;;;16.23;72.68;95417.19;5098195;28;20192;-73
2022/06/19 05:11:14;;;;;;;7.28;6.55;;;;;;;16.22;73.02;95419.16;5098187;28;20195;-73
2022/06/19 05:13:42;;;;;;;6.75;6.20;;;;;;;16.23;72.71;95419.97;5097767;28;20219;-73
2022/06/19 05:16:10;;;;;;;6.80;6.18;;;;;;;16.25;72.55;95428.75;5098276;28;20193;-73
2022/06/19 05:18:37;;;;;;;6.80;6.20;;;;;;;16.25;73.18;95428.75;5098213;28;20188;-73
2022/06/19 05:21:05;;;;;;;6.78;6.28;;;;;;;16.28;72.56;95425.22;5097902;28;20196;-74
2022/06/19 05:23:34;;;;;;;7.20;6.50;;;;;;;16.30;72.41;95426.44;5097688;28;20242;-73
2022/06/19 05:26:02;;;;;;;6.93;6.30;;;;;;;16.37;72.58;95426.50;5098360;28;20193;-74
2022/06/19 05:28:30;;;;;;;7.13;6.43;;;;;;;16.42;72.82;95421.78;5097713;28;20212;-74
2022/06/19 05:30:58;;;;;;;6.78;6.18;;;;;;;16.43;72.67;95429.75;5097472;28;20301;-74
2022/06/19 05:33:25;;;;;;;7.38;6.68;;;;;;;16.53;72.12;95426.28;5098195;28;20240;-74
2022/06/19 05:35:52;;;;;;;7.10;6.32;;;;;;;16.58;71.31;95430.69;5098725;28;20203;-73
2022/06/19 05:38:19;;;;;;;7.25;6.60;;;;;;;16.61;71.83;95419.59;5097268;28;20205;-73
2022/06/19 05:40:50;;;;;;;7.90;7.05;;;;;;;16.63;71.83;95424.78;5097448;28;20212;-73
2022/06/19 05:43:17;;;;;;;8.25;7.50;;;;;;;16.64;71.87;95428.38;5097379;28;20203;-73
2022/06/19 05:45:50;;;;;;;7.95;7.32;;;;;;;16.64;71.54;95428.38;5097375;28;20219;-73
2022/06/19 05:48:17;;;;;;;7.25;6.65;;;;;;;16.65;72.01;95425.19;5098202;28;20207;-73
2022/06/19 05:50:43;;;;;;;9.60;8.70;;;;;;;16.67;72.39;95427.59;5098132;28;20188;-73
2022/06/19 05:53:10;;;;;;;8.32;7.47;;;;;;;16.69;72.02;95430.78;5098071;28;20212;-73
2022/06/19 05:55:37;;;;;;;9.45;7.63;;;;;;;16.72;71.94;95430.81;5097326;28;20181;-73
2022/06/19 05:58:05;;;;;;;9.40;8.63;;;;;;;16.76;72.17;95422.53;5097141;28;20189;-73
2022/06/19 06:00:34;;;;;;;12.02;10.93;;;;;;;16.77;72.80;95433.28;5097983;28;20203;-73
2022/06/19 06:03:00;;;;;;;11.77;10.77;;;;;;;16.79;72.75;95419.78;5097859;28;20188;-73
2022/06/19 06:05:27;;;;;;;12.00;11.05;;;;;;;16.83;72.60;95426.19;5096979;28;20184;-73
2022/06/19 06:07:54;;;;;;;10.13;9.23;;;;;;;16.89;72.51;95425.84;5096893;28;20200;-73
2022/06/19 06:10:21;;;;;;;9.80;9.00;;;;;;;16.99;71.72;95419.53;5096807;28;20196;-73
2022/06/19 06:12:48;;;;;;;8.50;7.82;;;;;;;17.05;71.26;95424.38;5096818;28;20220;-73
2022/06/19 06:15:16;;;;;;;10.30;9.30;;;;;;;17.06;72.10;95420.38;5096773;28;20197;-73
2022/06/19 06:17:43;;;;;;;9.38;8.48;;;;;;;17.09;72.53;95424.41;5096567;28;20200;-73
2022/06/19 06:20:10;;;;;;;9.27;8.32;;;;;;;17.12;72.58;95420.03;5096439;28;20605;-74
2022/06/19 06:22:37;;;;;;;8.43;7.72;;;;;;;17.19;72.45;95422.88;5096786;28;20646;-73
2022/06/19 06:25:05;;;;;;;7.78;7.18;;;;;;;17.30;71.79;95418.97;5096708;28;20192;-73
2022/06/19 06:27:31;;;;;;;7.80;7.10;;;;;;;17.37;71.73;95423.00;5096222;28;20228;-73
2022/06/19 06:29:58;;;;;;;8.73;8.02;;;;;;;17.41;71.65;95421.84;5096685;28;20299;-73
2022/06/19 06:32:26;;;;;;;7.82;6.97;;;;;;;17.49;71.40;95426.25;5096094;28;20208;-73
2022/06/19 06:34:53;;;;;;;7.47;6.85;;;;;;;17.57;70.43;95424.31;5096091;28;20203;-72
2022/06/19 06:37:20;;;;;;;7.10;6.50;;;;;;;17.60;70.27;95420.75;5096344;28;20192;-73
2022/06/19 06:39:47;;;;;;;7.38;6.57;;;;;;;17.63;69.97;95417.19;5096213;28;20228;-73
2022/06/19 06:42:14;;;;;;;6.35;5.85;;;;;;;17.63;70.15;95411.59;5097171;28;20184;-73
2022/06/19 06:44:41;;;;;;;6.35;5.85;;;;;;;17.67;70.06;95417.22;5096227;28;20196;-73
2022/06/19 06:47:08;;;;;;;6.00;5.60;;;;;;;17.69;70.57;95412.06;5095870;28;20196;-75
2022/06/19 06:49:36;;;;;;;5.85;5.35;;;;;;;17.73;70.41;95408.09;5096975;28;20200;-73
2022/06/19 06:52:07;;;;;;;5.47;4.90;;;;;;;17.84;70.39;95413.75;5097021;28;20188;-74
2022/06/19 06:54:36;;;;;;;6.50;5.90;;;;;;;17.91;69.25;95404.59;5096062;28;20220;-73
2022/06/19 06:57:04;;;;;;;8.02;7.32;;;;;;;17.93;69.54;95408.59;5095905;28;20208;-73
2022/06/19 06:59:31;;;;;;;5.82;5.43;;;;;;;17.98;69.20;95411.00;5095913;28;20208;-74
2022/06/19 07:01:57;;;;;;;7.13;6.43;;;;;;;18.03;68.84;95407.84;5096055;28;20192;-74
2022/06/19 07:04:24;;;;;;;5.70;5.20;;;;;;;18.09;67.49;95402.69;5095855;28;20203;-74
2022/06/19 07:06:52;;;;;;;6.03;5.38;;;;;;;18.11;67.15;95402.28;5094383;28;20659;-75
2022/06/19 07:09:19;;;;;;;10.10;5.30;;;;;;;18.14;66.99;95404.28;5095378;28;20189;-75
2022/06/19 07:11:47;;;;;;;7.20;6.50;;;;;;;18.16;67.14;95391.53;5095895;28;20291;-70
2022/06/19 07:14:15;;;;;;;6.22;5.80;;;;;;;18.25;66.52;95394.75;5095299;28;20209;-71
2022/06/19 07:16:41;;;;;;;5.95;5.45;;;;;;;18.31;66.48;95392.38;5096198;28;20197;-70
2022/06/19 07:19:09;;;;;;;6.75;5.20;;;;;;;18.36;65.96;95383.59;5095143;28;20196;-71
2022/06/19 07:21:35;;;;;;;6.60;6.00;;;;;;;18.40;65.68;95387.19;5095701;28;20196;-70
2022/06/19 07:24:04;;;;;;;6.13;5.63;;;;;;;18.48;64.84;95388.84;5095509;28;20197;-71
2022/06/19 07:26:31;;;;;;;6.82;5.57;;;;;;;18.62;64.90;95381.66;5095582;28;20232;-71
2022/06/19 07:28:58;;;;;;;6.43;5.28;;;;;;;18.62;64.74;95381.66;5095543;28;20192;-69
2022/06/19 07:31:26;;;;;;;5.50;4.95;;;;;;;18.62;65.06;95374.06;5094973;28;20205;-70
2022/06/19 07:33:52;;;;;;;5.20;4.80;;;;;;;18.70;65.04;95374.88;5095491;28;20208;-70
2022/06/19 07:36:22;;;;;;;5.70;5.18;;;;;;;18.79;63.96;95366.94;5095690;28;20249;-70
2022/06/19 07:38:49;;;;;;;5.28;4.85;;;;;;;18.83;63.70;95369.72;5095313;28;20193;-70
2022/06/19 07:41:17;;;;;;;5.78;4.68;;;;;;;18.85;63.93;95375.72;5094947;28;20199;-70
2022/06/19 07:43:45;;;;;;;6.75;6.15;;;;;;;18.90;63.85;95370.53;5095262;28;20207;-70
2022/06/19 07:46:13;;;;;;;5.40;4.88;;;;;;;18.93;63.90;95369.72;5095191;28;20283;-69
2022/06/19 07:51:26;;;;;;;5.82;5.25;;;;;;;19.05;63.63;95367.72;5095030;28;20223;-69
2022/06/19 07:53:53;;;;;;;5.35;4.97;;;;;;;19.25;63.06;95374.50;5094558;28;20224;-69
2022/06/19 07:56:21;;;;;;;3.97;3.60;;;;;;;19.32;60.45;95374.50;5094731;28;20203;-69
2022/06/19 07:58:48;;;;;;;3.13;2.90;;;;;;;19.33;56.32;95373.28;5094783;28;20204;-69
2022/06/19 08:01:15;;;;;;;3.53;3.22;;;;;;;19.36;54.78;95374.47;5094398;28;20192;-70
2022/06/19 08:03:42;;;;;;;3.85;3.50;;;;;;;19.38;55.70;95372.06;5095437;28;20196;-70
2022/06/19 08:06:09;;;;;;;3.45;3.20;;;;;;;19.42;58.42;95379.25;5094686;28;20286;-69
2022/06/19 08:08:36;;;;;;;3.42;2.70;;;;;;;19.57;55.64;95374.44;5095073;28;20196;-69
2022/06/19 08:11:04;;;;;;;3.70;2.80;;;;;;;19.68;54.17;95366.00;5094266;28;20188;-69
2022/06/19 08:13:34;;;;;;;3.17;2.97;;;;;;;19.70;52.81;95372.81;5094564;28;20311;-69
2022/06/19 08:16:03;;;;;;;3.50;3.20;;;;;;;19.71;54.50;95360.41;5094252;28;20207;-69
2022/06/19 08:18:31;;;;;;;2.85;2.67;;;;;;;19.72;53.65;95366.81;5094313;28;20203;-69
2022/06/19 08:20:58;;;;;;;4.47;3.00;;;;;;;19.75;54.15;95368.00;5094963;28;20261;-70
2022/06/19 08:23:24;;;;;;;3.08;2.40;;;;;;;19.93;49.83;95365.94;5094246;28;20196;-70
2022/06/19 08:25:51;;;;;;;2.50;2.33;;;;;;;20.04;50.44;95361.06;5094445;28;20527;-70
2022/06/19 08:28:21;;;;;;;3.17;2.50;;;;;;;20.11;50.78;95363.84;5094626;28;20185;-69
2022/06/19 08:30:49;;;;;;;2.47;2.30;;;;;;;20.23;49.88;95359.00;5094908;28;20283;-70
2022/06/19 08:33:16;;;;;;;2.70;2.58;;;;;;;20.25;50.50;95360.16;5094343;28;20211;-70
2022/06/19 08:35:45;;;;;;;2.45;2.22;;;;;;;20.41;48.16;95360.50;5094042;28;20192;-70
2022/06/19 08:38:17;;;;;;;2.50;2.30;;;;;;;20.51;48.93;95360.84;5094508;28;20200;-70
2022/06/19 08:41:00;;;;;;;2.88;2.10;;;;;;;20.61;47.03;95362.78;5095369;28;20184;-69
2022/06/19 08:43:42;;;;;;;2.55;2.25;;;;;;;20.65;48.38;95355.16;5094272;28;20196;-70
2022/06/19 08:46:18;;;;;;;3.42;2.05;;;;;;;20.68;45.20;95359.94;5094399;28;20192;-70
2022/06/19 08:48:58;;;;;;;2.47;2.28;;;;;;;20.66;48.62;95351.13;5094446;28;20211;-69
2022/06/19 08:51:32;;;;;;;2.80;2.20;;;;;;;20.59;50.03;95342.81;5095856;28;20192;-68
2022/06/19 08:54:15;;;;;;;2.30;2.20;;;;;;;20.72;49.32;95354.31;5097093;28;20226;-68
2022/06/19 08:56:45;;;;;;;4.28;2.15;;;;;;;20.89;46.60;95356.97;5095647;28;20203;-68
2022/06/19 08:59:18;;;;;;;2.17;1.98;;;;;;;20.99;45.46;95348.88;5094501;28;20596;-68
2022/06/19 09:01:49;;;;;;;2.63;2.10;;;;;;;20.98;49.10;95350.88;5095781;28;20196;-68
2022/06/19 09:07:31;;;;;;;2.28;2.10;;;;;;;21.17;49.87;95355.13;5094862;28;20200;-68
2022/06/19 09:10:12;;;;;;;2.20;2.00;;;;;;;21.18;45.22;95345.50;5095519;28;20195;-68
2022/06/19 09:12:49;;;;;;;3.72;2.13;;;;;;;21.23;47.14;95347.06;5095647;28;20200;-68
2022/06/19 09:15:18;;;;;;;2.20;2.10;;;;;;;21.33;45.42;95340.56;5094708;28;20219;-68
2022/06/19 09:17:54;;;;;;;2.03;1.92;;;;;;;21.46;45.51;95341.66;5095294;28;20546;-68
2022/06/19 09:20:30;;;;;;;2.10;1.90;;;;;;;21.52;44.78;95331.53;5094160;28;20207;-68
2022/06/19 09:23:22;;;;;;;2.20;2.10;;;;;;;21.66;45.56;95335.41;5093869;28;20643;-68
2022/06/19 09:25:54;;;;;;;1.98;1.80;;;;;;;21.68;43.89;95333.78;5095090;28;20200;-68
2022/06/19 09:28:27;;;;;;;2.75;2.30;;;;;;;21.72;45.18;95317.69;5095281;28;20196;-68
2022/06/19 09:30:59;;;;;;;2.30;2.10;;;;;;;21.86;45.28;95327.97;5097071;28;20205;-69
2022/06/19 09:33:34;;;;;;;2.30;2.10;;;;;;;21.96;43.80;95315.00;5098361;28;20203;-69
2022/06/19 09:36:04;;;;;;;2.00;1.90;;;;;;;21.96;43.52;95312.97;5098801;28;20191;-68
2022/06/19 09:38:36;;;;;;;2.28;2.08;;;;;;;22.06;44.46;95320.47;5099085;28;20173;-68
2022/06/19 09:41:06;;;;;;;2.10;2.00;;;;;;;22.09;43.46;95316.03;5097745;28;20200;-68
2022/06/19 09:43:35;;;;;;;2.78;1.90;;;;;;;22.11;42.75;95320.00;5099319;28;20176;-68
2022/06/19 09:46:06;;;;;;;1.60;1.50;;;;;;;22.15;40.84;95316.38;5099243;28;20196;-68
2022/06/19 09:48:39;;;;;;;2.42;2.05;;;;;;;22.15;44.12;95311.56;5098563;28;20616;-68
2022/06/19 09:51:17;;;;;;;1.90;1.70;;;;;;;22.22;42.85;95311.47;5098504;28;20188;-68
2022/06/19 09:53:48;;;;;;;2.00;1.90;;;;;;;22.21;42.23;95309.06;5097553;28;20219;-69
2022/06/19 09:56:20;;;;;;;2.05;1.80;;;;;;;22.18;42.13;95309.91;5098455;28;20203;-68
2022/06/19 09:58:53;;;;;;;2.30;2.10;;;;;;;22.04;42.04;95308.88;5097289;28;20597;-69
2022/06/19 10:01:20;;;;;;;2.17;2.08;;;;;;;22.14;43.11;95307.16;5098141;28;20196;-68
2022/06/19 10:03:53;;;;;;;2.45;2.10;;;;;;;22.32;41.87;95313.31;5097271;28;20204;-68
2022/06/19 10:06:24;;;;;;;2.20;2.00;;;;;;;22.40;41.69;95304.78;5098836;28;20180;-68
2022/06/19 10:08:53;;;;;;;3.25;2.05;;;;;;;22.46;43.05;95303.88;5098470;28;20208;-68
2022/06/19 10:11:23;;;;;;;2.38;1.90;;;;;;;22.51;39.25;95294.16;5097121;28;20257;-68
2022/06/19 10:13:55;;;;;;;1.95;1.77;;;;;;;22.47;39.75;95296.25;5097333;28;20221;-69
2022/06/19 10:16:28;;;;;;;3.28;2.10;;;;;;;22.55;41.71;95294.94;5098475;28;20192;-68
2022/06/19 10:18:58;;;;;;;1.90;1.80;;;;;;;22.68;38.97;95276.22;5096991;28;20207;-69
2022/06/19 10:24:16;;;;;;;2.67;1.83;;;;;;;22.69;39.36;95286.25;5097923;28;20180;-68
2022/06/19 10:26:49;;;;;;;2.33;2.13;;;;;;;22.67;40.58;95285.88;5097693;28;20266;-69
2022/06/19 10:29:35;;;;;;;2.00;1.90;;;;;;;22.50;42.33;95284.16;5096568;28;20204;-68
2022/06/19 10:32:14;;;;;;;2.10;1.70;;;;;;;22.56;40.59;95283.25;5096734;28;20207;-68
2022/06/19 10:34:51;;;;;;;2.47;2.38;;;;;;;22.76;40.91;95274.09;5098002;28;20208;-68
2022/06/19 10:37:27;;;;;;;1.70;1.60;;;;;;;22.87;42.72;95283.13;5097491;28;20184;-68
2022/06/19 10:40:04;;;;;;;1.83;1.73;;;;;;;23.05;40.70;95283.66;5097857;28;20196;-68
2022/06/19 10:42:34;;;;;;;2.13;1.90;;;;;;;23.15;39.50;95278.28;5097699;28;20209;-68
2022/06/19 10:45:27;;;;;;;1.88;1.77;;;;;;;23.17;41.50;95271.00;5098360;28;20241;-69
2022/06/19 10:48:04;;;;;;;1.70;1.60;;;;;;;23.21;39.29;95277.34;5091111;28;20209;-68
2022/06/19 10:50:37;;;;;;;2.35;1.70;;;;;;;23.22;37.89;95281.75;5097012;28;20597;-68
2022/06/19 10:53:14;;;;;;;1.95;1.85;;;;;;;23.24;39.29;95286.94;5096558;28;20199;-69
2022/06/19 10:55:44;;;;;;;1.67;1.58;;;;;;;23.23;37.47;95276.91;5096488;28;20211;-68
2022/06/19 10:58:16;;;;;;;2.05;1.95;;;;;;;23.40;38.05;95278.59;5096141;28;20200;-68
2022/06/19 11:00:44;;;;;;;1.85;1.75;;;;;;;23.42;37.37;95270.53;5096051;28;20200;-68
2022/06/19 11:06:05;;;;;;;2.30;2.00;;;;;;;23.11;38.65;95267.09;5096783;28;20184;-69
2022/06/19 11:08:35;;;;;;;2.80;1.77;;;;;;;23.16;37.57;95260.94;5097916;28;20184;-69
2022/06/19 11:11:03;;;;;;;2.28;1.88;;;;;;;23.23;39.29;95254.41;5098130;28;20569;-68
2022/06/19 11:14:06;;;;;;;1.80;1.70;;;;;;;23.27;39.89;95261.53;5098216;28;20188;-68
2022/06/19 11:16:35;;;;;;;2.00;1.90;;;;;;;23.42;40.49;95253.66;5097706;28;20216;-68
2022/06/19 11:19:02;;;;;;;2.35;1.85;;;;;;;23.51;39.57;95255.88;5080110;28;20269;-68
2022/06/19 11:21:34;;;;;;;1.98;1.88;;;;;;;23.57;38.91;95240.06;5097046;28;20291;-68
2022/06/19 11:24:03;;;;;;;1.80;1.70;;;;;;;23.58;40.59;95232.41;5096812;28;20188;-68
2022/06/19 11:26:37;;;;;;;2.15;1.95;;;;;;;23.65;41.93;95232.28;5095557;28;20634;-68
2022/06/19 11:29:09;;;;;;;2.30;1.77;;;;;;;23.52;38.05;95240.56;5095456;28;20198;-68
2022/06/19 11:31:37;;;;;;;1.55;1.55;;;;;;;23.29;36.63;95235.81;5096058;28;20537;-68
2022/06/19 11:34:43;;;;;;;1.67;1.58;;;;;;;23.38;37.96;95235.22;5096607;28;20188;-68
2022/06/19 11:37:11;;;;;;;2.17;1.80;;;;;;;23.57;38.75;95225.19;5095987;28;20293;-68
2022/06/19 11:39:40;;;;;;;1.90;1.80;;;;;;;23.65;38.58;95233.06;5096104;28;20214;-68
2022/06/19 11:42:21;;;;;;;1.70;1.60;;;;;;;23.75;38.19;95232.06;5096168;28;20184;-69
2022/06/19 11:44:51;;;;;;;2.45;1.90;;;;;;;23.77;37.87;95226.78;5095412;28;20202;-69
2022/06/19 11:47:19;;;;;;;1.80;1.60;;;;;;;23.89;36.98;95224.53;5095222;28;20212;-67
2022/06/19 11:49:46;;;;;;;2.33;1.92;;;;;;;23.97;39.44;95212.69;5095695;28;20644;-69
2022/06/19 11:52:19;;;;;;;1.80;1.70;;;;;;;24.05;37.90;95213.31;5095504;28;20193;-70
2022/06/19 11:54:47;;;;;;;2.22;1.67;;;;;;;23.87;38.36;95202.44;5095730;28;20220;-66
2022/06/19 11:57:26;;;;;;;2.72;1.73;;;;;;;23.64;38.97;95203.31;5095905;28;20195;-66